createdAt,value
2022-11-02T00:04:11.556Z,101368.00
2022-11-02T00:09:33.179Z,101386.81
2022-11-02T00:14:55.004Z,101400.97
2022-11-02T00:20:19.671Z,101399.25
2022-11-02T00:25:44.089Z,101413.41
2022-11-02T00:31:05.779Z,101410.03
2022-11-02T00:36:28.141Z,101398.91
2022-11-02T00:41:49.806Z,101398.31
2022-11-02T00:47:12.062Z,101400.47
2022-11-02T00:52:33.759Z,101410.97
2022-11-02T00:57:55.494Z,101409.31
2022-11-02T01:03:17.152Z,101418.13
2022-11-02T01:08:38.921Z,101429.22
2022-11-02T01:14:00.636Z,101421.97
2022-11-02T01:19:22.364Z,101431.38
2022-11-02T01:24:44.100Z,101438.03
2022-11-02T01:30:06.345Z,101430.78
2022-11-02T01:35:27.986Z,101432.94
2022-11-02T01:40:49.623Z,101442.34
2022-11-02T01:46:11.373Z,101450.69
2022-11-02T01:51:38.149Z,101447.06
2022-11-02T01:57:06.224Z,101444.53
2022-11-02T02:02:28.587Z,101457.56
2022-11-02T02:07:51.264Z,101463.38
2022-11-02T02:13:14.322Z,101458.03
2022-11-02T02:18:46.706Z,101451.41
2022-11-02T02:24:29.542Z,101459.97
2022-11-02T02:30:10.740Z,101458.28
2022-11-02T02:35:41.391Z,101467.69
2022-11-02T02:41:18.197Z,101463.22
2022-11-02T02:46:55.911Z,101469.84
2022-11-02T02:52:19.917Z,101471.78
2022-11-02T02:57:41.851Z,101467.31
2022-11-02T03:03:05.627Z,101469.25
2022-11-02T03:08:27.578Z,101492.53
2022-11-02T03:13:51.858Z,101509.16
2022-11-02T03:19:31.698Z,101506.41
2022-11-02T03:25:03.214Z,101514.13
2022-11-02T03:30:28.453Z,101520.78
2022-11-02T03:36:01.694Z,101525.25
2022-11-02T03:41:25.694Z,101531.88
2022-11-02T03:46:51.694Z,101550.22
2022-11-02T03:52:20.289Z,101554.06
2022-11-02T03:57:46.865Z,101562.84
2022-11-02T04:03:12.087Z,101578.41
2022-11-02T04:08:38.008Z,101591.44
2022-11-02T04:14:18.498Z,101599.75
2022-11-02T04:19:41.395Z,101596.16
2022-11-02T04:25:15.892Z,101614.34
2022-11-02T04:30:37.554Z,101628.81
2022-11-02T04:36:04.217Z,101637.41
2022-11-02T04:41:44.420Z,101643.78
2022-11-02T04:47:06.107Z,101645.94
2022-11-02T04:52:27.845Z,101661.75
2022-11-02T04:57:49.607Z,101667.53
2022-11-02T05:03:12.512Z,101683.94
2022-11-02T05:08:35.963Z,101687.56
2022-11-02T05:13:57.711Z,101706.13
2022-11-02T05:19:19.358Z,101716.38
2022-11-02T05:24:41.015Z,101727.47
2022-11-02T05:30:02.840Z,101743.28
2022-11-02T05:35:24.646Z,101752.69
2022-11-02T05:40:53.077Z,101759.09
2022-11-02T05:46:15.229Z,101747.38
2022-11-02T05:51:36.865Z,101764.22
2022-11-02T05:56:58.577Z,101759.56
2022-11-02T06:02:23.295Z,101785.59
2022-11-02T06:07:47.202Z,101788.38
2022-11-02T06:13:08.964Z,101794.06
2022-11-02T06:18:31.891Z,101798.69
2022-11-02T06:23:54.461Z,101812.25
2022-11-02T06:29:16.245Z,101827.13
2022-11-02T06:34:37.953Z,101831.41
2022-11-02T06:39:59.594Z,101838.66
2022-11-02T06:45:21.256Z,101853.63
2022-11-02T06:50:43.055Z,101858.53
2022-11-02T06:56:04.939Z,101870.72
2022-11-02T07:01:26.690Z,101881.81
2022-11-02T07:06:48.408Z,101890.97
2022-11-02T07:12:10.030Z,101907.63
2022-11-02T07:17:32.397Z,101911.28
2022-11-02T07:22:56.214Z,101912.34
2022-11-02T07:28:17.871Z,101921.75
2022-11-02T07:33:39.562Z,101930.06
2022-11-02T07:39:01.422Z,101935.63
2022-11-02T07:44:23.057Z,101957.00
2022-11-02T07:49:44.702Z,101955.06
2022-11-02T07:55:06.951Z,101956.91
2022-11-02T08:00:31.580Z,101958.94
2022-11-02T08:05:53.989Z,101982.50
2022-11-02T08:11:15.659Z,102000.03
2022-11-02T08:16:37.305Z,101999.19
2022-11-02T08:21:58.940Z,101991.81
2022-11-02T08:27:20.675Z,101998.25
2022-11-02T08:32:42.417Z,101997.53
2022-11-02T08:38:04.822Z,101995.22
2022-11-02T08:43:26.629Z,102000.44
2022-11-02T08:48:48.339Z,101999.91
2022-11-02T08:54:10.152Z,101995.88
2022-11-02T08:59:31.774Z,102010.84
2022-11-02T09:04:53.418Z,102018.06
2022-11-02T09:10:15.115Z,102020.81
2022-11-02T09:15:37.999Z,102013.88
2022-11-02T09:21:04.394Z,102022.53
2022-11-02T09:26:26.063Z,102028.03
2022-11-02T09:31:49.076Z,102035.38
2022-11-02T09:37:10.775Z,102031.78
2022-11-02T09:42:54.943Z,102023.09
2022-11-02T09:48:27.035Z,102023.41
2022-11-02T09:54:17.455Z,102029.66
2022-11-02T09:59:41.459Z,102041.69
2022-11-02T10:05:25.420Z,102041.31
2022-11-02T10:11:10.684Z,102040.06
2022-11-02T10:16:59.259Z,102051.66
2022-11-02T10:22:31.171Z,102056.56
2022-11-02T10:28:04.433Z,102055.94
2022-11-02T10:33:28.547Z,102055.31
2022-11-02T10:39:24.080Z,102056.41
2022-11-02T10:45:02.333Z,102058.56
2022-11-02T10:50:41.478Z,102049.59
2022-11-02T10:56:25.114Z,102057.94
2022-11-02T11:02:05.224Z,102050.06
2022-11-02T11:07:28.183Z,102056.72
2022-11-02T11:12:50.311Z,102063.34
2022-11-02T11:24:20.072Z,102061.41
2022-11-02T11:29:48.093Z,102049.66
2022-11-02T11:35:18.208Z,102046.81
2022-11-02T11:40:45.272Z,102037.75
2022-11-02T11:46:11.029Z,102026.72
2022-11-02T11:51:39.619Z,102029.59
2022-11-02T12:03:08.225Z,102012.25
2022-11-02T12:08:56.312Z,101998.97
2022-11-02T12:14:26.976Z,102001.75
2022-11-02T12:19:51.360Z,101998.59
2022-11-02T12:26:03.091Z,101994.81
2022-11-02T12:31:37.382Z,101984.16
2022-11-02T12:37:50.992Z,101975.91
2022-11-02T12:43:31.143Z,101964.41
2022-11-02T12:49:20.450Z,101959.56
2022-11-02T12:54:51.410Z,101961.34
2022-11-02T13:00:23.368Z,101953.72
2022-11-02T13:05:54.306Z,101948.84
2022-11-02T13:11:29.281Z,101939.88
2022-11-02T13:16:59.345Z,101930.94
2022-11-02T13:22:25.700Z,101936.69
2022-11-02T13:28:10.087Z,101943.75
2022-11-02T13:33:44.722Z,101932.19
2022-11-02T13:39:16.228Z,101924.69
2022-11-02T13:45:01.687Z,101922.72
2022-11-02T13:50:26.395Z,101926.63
2022-11-02T13:55:55.405Z,101922.97
2022-11-02T14:01:19.995Z,101922.16
2022-11-02T14:06:55.783Z,101909.09
2022-11-02T14:12:17.414Z,101899.50
2022-11-02T14:17:54.187Z,101900.38
2022-11-02T14:23:15.860Z,101900.84
2022-11-02T14:28:43.801Z,101899.13
2022-11-02T14:34:38.522Z,101892.75
2022-11-02T14:40:19.512Z,101890.19
2022-11-02T14:46:06.439Z,101886.81
2022-11-02T14:51:38.033Z,101877.84
2022-11-02T14:57:02.906Z,101872.75
2022-11-02T15:02:42.031Z,101861.00
2022-11-02T15:08:19.960Z,101858.09
2022-11-02T15:13:48.312Z,101851.53
2022-11-02T15:19:39.262Z,101851.75
2022-11-02T15:25:16.374Z,101842.19
2022-11-02T15:30:47.081Z,101835.78
2022-11-02T15:36:19.085Z,101826.00
2022-11-02T15:42:01.488Z,101829.84
2022-11-02T15:47:25.924Z,101828.16
2022-11-02T15:53:28.852Z,101822.84
2022-11-02T15:59:31.499Z,101825.00
2022-11-02T16:04:57.055Z,101817.97
2022-11-02T16:10:24.338Z,101811.19
2022-11-02T16:15:48.996Z,101811.59
2022-11-02T16:21:15.742Z,101803.50
2022-11-02T16:26:37.410Z,101793.69
2022-11-02T16:31:59.249Z,101794.53
2022-11-02T16:37:21.868Z,101796.69
2022-11-02T16:42:46.116Z,101799.94
2022-11-02T16:48:29.155Z,101795.47
2022-11-02T16:53:52.226Z,101804.66
2022-11-02T16:59:14.682Z,101808.25
2022-11-02T17:04:41.284Z,101804.72
2022-11-02T17:10:05.672Z,101812.53
2022-11-02T17:15:29.556Z,101809.72
2022-11-02T17:21:13.984Z,101805.41
2022-11-02T17:26:37.698Z,101785.94
2022-11-02T17:32:01.203Z,101785.09
2022-11-02T17:37:33.197Z,101779.53
2022-11-02T17:42:58.956Z,101775.78
2022-11-02T17:48:20.586Z,101772.25
2022-11-02T17:53:42.811Z,101768.41
2022-11-02T17:59:04.455Z,101760.41
2022-11-02T18:04:26.094Z,101749.88
2022-11-02T18:09:47.741Z,101752.16
2022-11-02T18:15:24.247Z,101745.88
2022-11-02T18:20:45.959Z,101739.56
2022-11-02T18:26:11.186Z,101744.38
2022-11-02T18:31:34.845Z,101748.09
2022-11-02T18:36:56.698Z,101753.56
2022-11-02T18:42:18.432Z,101739.50
2022-11-02T18:47:40.361Z,101734.41
2022-11-02T18:53:02.124Z,101733.22
2022-11-02T18:58:23.841Z,101719.81
2022-11-02T19:03:52.931Z,101708.06
2022-11-02T19:09:19.160Z,101691.88
2022-11-02T19:14:43.699Z,101676.78
2022-11-02T19:20:05.840Z,101674.84
2022-11-02T19:25:27.515Z,101654.34
2022-11-02T19:30:49.181Z,101651.09
2022-11-02T19:36:10.902Z,101632.13
2022-11-02T19:41:32.942Z,101616.75
2022-11-02T19:46:54.589Z,101613.94
2022-11-02T19:52:16.482Z,101613.44
2022-11-02T19:57:38.121Z,101600.38
2022-11-02T20:02:59.804Z,101607.50
2022-11-02T20:08:21.496Z,101601.84
2022-11-02T20:13:44.562Z,101594.50
2022-11-02T20:19:06.882Z,101597.16
2022-11-02T20:24:28.531Z,101591.72
2022-11-02T20:29:50.173Z,101582.44
2022-11-02T20:35:13.740Z,101581.47
2022-11-02T20:40:40.974Z,101565.50
2022-11-02T20:46:42.468Z,101563.19
2022-11-02T20:52:05.081Z,101563.47
2022-11-02T20:57:28.502Z,101568.41
2022-11-02T21:02:51.614Z,101563.19
2022-11-02T21:08:14.008Z,101558.38
2022-11-02T21:13:53.752Z,101553.78
2022-11-02T21:19:15.392Z,101547.97
2022-11-02T21:24:37.090Z,101544.97
2022-11-02T21:29:58.740Z,101532.97
2022-11-02T21:35:21.148Z,101541.56
2022-11-02T21:40:42.771Z,101542.06
2022-11-02T21:46:06.266Z,101529.69
2022-11-02T21:51:28.682Z,101522.69
2022-11-02T21:56:50.553Z,101517.41
2022-11-02T22:02:12.560Z,101505.34
2022-11-02T22:07:54.288Z,101504.13
2022-11-02T22:13:34.005Z,101495.69
2022-11-02T22:18:58.213Z,101500.66
2022-11-02T22:24:21.470Z,101491.72
2022-11-02T22:29:43.163Z,101479.97
2022-11-02T22:35:05.113Z,101471.53
2022-11-02T22:40:26.754Z,101459.22
2022-11-02T22:45:48.387Z,101451.38
2022-11-02T22:51:10.545Z,101440.16
2022-11-02T22:56:32.929Z,101428.69
2022-11-02T23:01:54.746Z,101424.94
2022-11-02T23:07:16.490Z,101419.88
2022-11-02T23:12:38.153Z,101413.75
2022-11-02T23:17:59.869Z,101404.22
2022-11-02T23:23:40.100Z,101399.13
2022-11-02T23:29:20.367Z,101392.16
2022-11-02T23:35:02.014Z,101392.63
2022-11-02T23:40:23.637Z,101387.31
2022-11-02T23:45:45.361Z,101400.59
2022-11-02T23:51:25.555Z,101382.25
2022-11-02T23:56:47.349Z,101374.16
